Time;durP1;ratioP1;P1;durP2;ratioP2;P2;SDS_P1;SDS_P2;PMS_P1;PMS_P2;Temp;Humidity;BMP_temperature;BMP_pressure;BME280_temperature;BME280_humidity;BME280_pressure;Samples;Min_cycle;Max_cycle;Signal;HPM_P1;HPM_P2
2021/12/27 00:01:44;;;;;;;32.00;17.00;;;-0.10;99.90;;;;;;5052790;28;20048;-79
2021/12/27 00:04:10;;;;;;;25.47;15.57;;;-0.10;99.90;;;;;;5028930;28;20048;-79
2021/12/27 00:06:35;;;;;;;28.67;16.10;;;-0.10;99.90;;;;;;5052191;28;20299;-79
2021/12/27 00:09:03;;;;;;;22.73;14.80;;;-0.10;99.90;;;;;;5053215;28;20048;-79
2021/12/27 00:11:28;;;;;;;28.83;15.40;;;-0.10;99.90;;;;;;5019408;28;20051;-78
2021/12/27 00:13:55;;;;;;;36.57;18.80;;;-0.10;99.90;;;;;;5042302;28;20393;-79
2021/12/27 00:16:20;;;;;;;36.93;18.47;;;-0.10;99.90;;;;;;5053283;28;20498;-79
2021/12/27 00:18:46;;;;;;;29.77;16.03;;;0.00;99.90;;;;;;5028102;28;20334;-79
2021/12/27 00:21:12;;;;;;;32.37;16.97;;;0.00;99.90;;;;;;5020058;28;20529;-77
2021/12/27 00:23:38;;;;;;;25.30;15.47;;;0.00;99.90;;;;;;5032126;28;20072;-79
2021/12/27 00:26:05;;;;;;;28.03;15.87;;;0.00;99.90;;;;;;5033387;28;20048;-79
2021/12/27 00:28:33;;;;;;;24.33;15.23;;;0.00;99.90;;;;;;5016630;28;20334;-77
2021/12/27 00:30:59;;;;;;;28.33;15.93;;;0.10;99.90;;;;;;5027976;28;20299;-78
2021/12/27 00:33:25;;;;;;;25.07;15.67;;;0.10;99.90;;;;;;5053643;28;20298;-78
2021/12/27 00:35:51;;;;;;;24.97;15.97;;;0.10;99.90;;;;;;5049536;28;20298;-78
2021/12/27 00:38:17;;;;;;;26.03;14.90;;;0.10;99.90;;;;;;5023603;28;20314;-79
2021/12/27 00:40:43;;;;;;;26.80;15.30;;;0.10;99.90;;;;;;5051899;28;20045;-78
2021/12/27 00:43:10;;;;;;;27.87;15.93;;;0.10;99.90;;;;;;5053429;28;20540;-78
2021/12/27 00:45:36;;;;;;;24.50;14.53;;;0.10;99.90;;;;;;5019314;28;20075;-78
2021/12/27 00:48:02;;;;;;;26.47;16.43;;;0.10;99.90;;;;;;5036484;28;20823;-77
2021/12/27 00:50:28;;;;;;;27.83;16.00;;;0.20;99.90;;;;;;5051478;28;20048;-77
2021/12/27 00:52:54;;;;;;;28.40;15.87;;;0.20;99.90;;;;;;5052761;28;20356;-79
2021/12/27 00:55:20;;;;;;;27.33;16.67;;;0.20;99.90;;;;;;5038589;28;20047;-79
2021/12/27 00:57:47;;;;;;;26.47;16.17;;;0.20;99.90;;;;;;5064892;28;20489;-77
2021/12/27 01:00:17;;;;;;;26.33;16.10;;;0.20;99.90;;;;;;5036499;28;20843;-79
2021/12/27 01:02:43;;;;;;;28.97;16.83;;;0.20;99.90;;;;;;5053750;28;20310;-78
2021/12/27 01:05:10;;;;;;;27.90;16.30;;;0.20;99.90;;;;;;5039824;28;20379;-78
2021/12/27 01:07:36;;;;;;;26.00;16.80;;;0.20;99.90;;;;;;5031087;28;20332;-79
2021/12/27 01:10:19;;;;;;;27.23;16.40;;;0.20;99.90;;;;;;5054196;28;20342;-78
2021/12/27 01:13:04;;;;;;;28.27;16.80;;;0.30;99.90;;;;;;5055381;28;20401;-78
2021/12/27 01:15:35;;;;;;;30.47;16.60;;;0.30;99.90;;;;;;5037412;28;20322;-78
2021/12/27 01:18:01;;;;;;;31.60;17.10;;;0.30;99.90;;;;;;5039377;28;20834;-79
2021/12/27 01:20:27;;;;;;;26.80;16.67;;;0.20;99.90;;;;;;5056276;28;20287;-79
2021/12/27 01:22:54;;;;;;;27.50;16.40;;;0.30;99.90;;;;;;5038496;28;20040;-78
2021/12/27 01:25:21;;;;;;;25.93;15.90;;;0.30;99.90;;;;;;5059960;28;20290;-78
2021/12/27 01:27:47;;;;;;;27.60;17.40;;;0.30;99.90;;;;;;5070949;28;20393;-78
2021/12/27 01:30:16;;;;;;;28.43;16.67;;;0.30;99.90;;;;;;5077039;28;20332;-78
2021/12/27 01:32:56;;;;;;;30.47;17.10;;;0.30;99.90;;;;;;5039714;28;20334;-78
2021/12/27 01:35:23;;;;;;;29.67;17.13;;;0.30;99.90;;;;;;5040365;28;20664;-78
2021/12/27 01:37:51;;;;;;;27.47;16.53;;;0.30;99.90;;;;;;5038369;28;20352;-79
2021/12/27 01:40:18;;;;;;;28.43;17.27;;;0.30;99.90;;;;;;5065894;28;20823;-78
2021/12/27 01:43:02;;;;;;;26.93;16.20;;;0.30;99.90;;;;;;5064536;28;20299;-78
2021/12/27 01:45:28;;;;;;;30.02;17.50;;;0.30;99.90;;;;;;5028049;28;20344;-78
2021/12/27 01:47:55;;;;;;;27.40;16.03;;;0.30;99.90;;;;;;5031525;28;20041;-78
2021/12/27 01:50:21;;;;;;;27.03;16.33;;;0.30;99.90;;;;;;5019819;28;20300;-79
2021/12/27 01:52:47;;;;;;;26.53;15.60;;;0.30;99.90;;;;;;5037776;28;20297;-79
2021/12/27 01:55:13;;;;;;;28.63;16.53;;;0.30;99.90;;;;;;5057431;28;20067;-79
2021/12/27 01:57:39;;;;;;;27.97;17.67;;;0.30;99.90;;;;;;5034150;28;20811;-79
2021/12/27 02:00:06;;;;;;;29.50;17.90;;;0.30;99.90;;;;;;5064093;28;20044;-78
2021/12/27 02:02:32;;;;;;;31.47;17.23;;;0.40;99.90;;;;;;5038366;28;20055;-79
2021/12/27 02:04:59;;;;;;;29.53;17.80;;;0.40;99.90;;;;;;5056165;28;20387;-78
2021/12/27 02:07:25;;;;;;;31.27;18.33;;;0.30;99.90;;;;;;5038311;28;20135;-79
2021/12/27 02:10:02;;;;;;;29.07;18.23;;;0.40;99.90;;;;;;5039072;28;20389;-78
2021/12/27 02:12:28;;;;;;;33.00;18.40;;;0.40;99.90;;;;;;5020662;28;20036;-79
2021/12/27 02:14:55;;;;;;;29.13;17.90;;;0.40;99.90;;;;;;5050921;28;20890;-77
2021/12/27 02:17:21;;;;;;;26.87;17.33;;;0.40;99.90;;;;;;5055084;28;20040;-79
2021/12/27 02:19:49;;;;;;;26.87;16.90;;;0.40;99.90;;;;;;5056023;28;20295;-78
2021/12/27 02:22:15;;;;;;;29.37;16.70;;;0.40;99.90;;;;;;5038745;28;20874;-79
2021/12/27 02:24:40;;;;;;;29.97;17.80;;;0.40;99.90;;;;;;5036940;28;20378;-78
2021/12/27 02:27:06;;;;;;;28.00;17.67;;;0.40;99.90;;;;;;5053734;28;20052;-79
2021/12/27 02:29:32;;;;;;;28.43;17.40;;;0.40;99.90;;;;;;5050741;28;20145;-79
2021/12/27 02:31:58;;;;;;;29.27;18.00;;;0.40;99.90;;;;;;5027757;28;20041;-79
2021/12/27 02:34:24;;;;;;;29.40;17.70;;;0.50;99.90;;;;;;5019183;28;20069;-79
2021/12/27 02:36:51;;;;;;;33.93;18.60;;;0.40;99.90;;;;;;5021070;28;20067;-79
2021/12/27 02:39:17;;;;;;;30.80;16.90;;;0.40;99.90;;;;;;5030149;28;20099;-78
2021/12/27 02:41:43;;;;;;;27.80;17.77;;;0.40;99.90;;;;;;5027335;28;20835;-79
2021/12/27 02:44:08;;;;;;;30.00;17.53;;;0.40;99.90;;;;;;5055550;28;20386;-79
2021/12/27 02:46:34;;;;;;;28.30;17.80;;;0.40;99.90;;;;;;5029729;28;20048;-79
2021/12/27 02:49:00;;;;;;;28.73;18.23;;;0.40;99.90;;;;;;5019412;28;20049;-79
2021/12/27 02:51:26;;;;;;;28.47;17.87;;;0.40;99.90;;;;;;5054736;28;20127;-79
2021/12/27 02:53:53;;;;;;;30.27;17.07;;;0.40;99.90;;;;;;5038151;28;20131;-78
2021/12/27 02:56:19;;;;;;;27.90;17.67;;;0.40;99.90;;;;;;5037516;28;20048;-79
2021/12/27 02:58:45;;;;;;;33.27;18.33;;;0.40;99.90;;;;;;5038818;28;20385;-78
2021/12/27 03:01:13;;;;;;;30.10;17.97;;;0.50;99.90;;;;;;5025717;28;20303;-79
2021/12/27 03:03:39;;;;;;;31.23;18.23;;;0.40;99.90;;;;;;5059347;28;20821;-78
2021/12/27 03:06:06;;;;;;;30.10;18.47;;;0.40;99.90;;;;;;5028381;28;20384;-78
2021/12/27 03:08:33;;;;;;;29.83;19.10;;;0.40;99.90;;;;;;5038453;28;20068;-79
2021/12/27 03:11:01;;;;;;;30.90;18.10;;;0.40;99.90;;;;;;5054226;28;20378;-79
2021/12/27 03:13:28;;;;;;;30.77;18.17;;;0.60;99.90;;;;;;5038381;28;20386;-78
2021/12/27 03:15:56;;;;;;;31.17;18.20;;;0.40;99.90;;;;;;5019037;28;20331;-79
2021/12/27 03:18:23;;;;;;;31.10;18.70;;;0.50;99.90;;;;;;5041122;28;20368;-79
2021/12/27 03:20:49;;;;;;;28.70;17.17;;;0.50;99.90;;;;;;5057896;28;20294;-78
2021/12/27 03:23:15;;;;;;;31.03;18.13;;;0.50;99.90;;;;;;5037868;28;20299;-79
2021/12/27 03:25:41;;;;;;;29.87;18.93;;;0.50;99.90;;;;;;5036135;28;20356;-79
2021/12/27 03:28:08;;;;;;;29.40;18.03;;;0.50;99.90;;;;;;5017993;28;20040;-79
2021/12/27 03:30:34;;;;;;;30.87;18.07;;;0.50;99.90;;;;;;5041456;28;20635;-79
2021/12/27 03:33:00;;;;;;;31.70;18.17;;;0.50;99.90;;;;;;5035296;28;20328;-79
2021/12/27 03:35:29;;;;;;;29.87;17.83;;;0.50;99.90;;;;;;5026195;28;20076;-79
2021/12/27 03:37:57;;;;;;;35.77;19.93;;;0.50;99.90;;;;;;5032959;28;20044;-79
2021/12/27 03:40:24;;;;;;;27.93;16.97;;;0.50;99.90;;;;;;5037199;28;20294;-79
2021/12/27 03:42:50;;;;;;;33.10;19.17;;;0.60;99.90;;;;;;5028641;28;20315;-79
2021/12/27 03:45:19;;;;;;;30.27;18.50;;;0.60;99.90;;;;;;5036373;28;20322;-79
2021/12/27 03:47:45;;;;;;;33.03;19.03;;;0.60;99.90;;;;;;5020354;28;20384;-78
2021/12/27 03:50:11;;;;;;;30.63;18.23;;;0.60;99.90;;;;;;5038127;28;20301;-79
2021/12/27 03:52:37;;;;;;;29.43;18.00;;;0.60;99.90;;;;;;5056691;28;20303;-78
2021/12/27 03:55:03;;;;;;;29.90;18.57;;;0.60;99.90;;;;;;5053432;28;20075;-77
2021/12/27 03:57:31;;;;;;;30.70;18.93;;;0.60;99.90;;;;;;5037252;28;20044;-79
2021/12/27 04:02:44;;;;;;;31.23;17.97;;;0.60;99.90;;;;;;5052139;28;20310;-79
2021/12/27 04:05:10;;;;;;;32.57;17.83;;;0.60;99.90;;;;;;5038251;28;20393;-78
2021/12/27 04:07:37;;;;;;;30.27;18.70;;;0.60;99.90;;;;;;5037238;28;20870;-79
2021/12/27 04:10:04;;;;;;;32.77;19.33;;;0.60;99.90;;;;;;5027989;28;20082;-78
2021/12/27 04:12:30;;;;;;;29.90;18.53;;;0.60;99.90;;;;;;5044335;28;20299;-79
2021/12/27 04:14:56;;;;;;;30.57;18.20;;;0.60;99.90;;;;;;5035438;28;20389;-78
2021/12/27 04:17:22;;;;;;;30.97;18.27;;;0.60;99.90;;;;;;5025193;28;20140;-79
2021/12/27 04:19:49;;;;;;;30.30;18.53;;;0.60;99.90;;;;;;5017072;28;20410;-78
2021/12/27 04:22:15;;;;;;;31.70;18.93;;;0.60;99.90;;;;;;5052180;28;20064;-79
2021/12/27 04:24:41;;;;;;;29.37;18.33;;;0.60;99.90;;;;;;5025817;28;20897;-79
2021/12/27 04:27:06;;;;;;;32.33;19.10;;;0.60;99.90;;;;;;5034870;28;20072;-79
2021/12/27 04:29:32;;;;;;;35.43;18.87;;;0.60;99.90;;;;;;5014506;28;20399;-79
2021/12/27 04:31:58;;;;;;;32.73;19.90;;;0.60;99.90;;;;;;5027188;28;20097;-79
2021/12/27 04:34:23;;;;;;;32.43;19.97;;;0.60;99.90;;;;;;5027690;28;20110;-79
2021/12/27 04:36:51;;;;;;;32.83;18.23;;;0.60;99.90;;;;;;5036609;28;20041;-78
2021/12/27 04:39:16;;;;;;;33.70;19.73;;;0.70;99.90;;;;;;5019414;28;20575;-78
2021/12/27 04:41:42;;;;;;;33.00;18.87;;;0.60;99.90;;;;;;5015837;28;20303;-78
2021/12/27 04:44:08;;;;;;;30.90;18.30;;;0.80;99.90;;;;;;5036063;28;20104;-79
2021/12/27 04:46:34;;;;;;;32.00;19.80;;;0.70;99.90;;;;;;5040713;28;20044;-79
2021/12/27 04:48:59;;;;;;;29.40;18.57;;;0.70;99.90;;;;;;5055862;28;20045;-79
2021/12/27 04:51:25;;;;;;;30.73;19.07;;;0.70;99.90;;;;;;5040274;28;20123;-79
2021/12/27 04:53:53;;;;;;;31.73;19.80;;;0.70;99.90;;;;;;5036715;28;20048;-79
2021/12/27 04:56:19;;;;;;;31.73;19.17;;;0.70;99.90;;;;;;5035850;28;20163;-79
2021/12/27 04:58:46;;;;;;;37.70;20.30;;;0.70;99.90;;;;;;5036787;28;20301;-79
2021/12/27 05:01:12;;;;;;;32.43;19.20;;;0.70;99.90;;;;;;5052631;28;20664;-78
2021/12/27 05:03:38;;;;;;;31.57;18.63;;;0.70;99.90;;;;;;5047427;28;20290;-78
2021/12/27 05:06:04;;;;;;;32.03;19.87;;;0.70;99.90;;;;;;5028239;28;20301;-79
2021/12/27 05:08:30;;;;;;;35.57;19.40;;;0.70;99.90;;;;;;5036622;28;20048;-79
2021/12/27 05:10:57;;;;;;;33.83;20.03;;;0.70;99.90;;;;;;5024608;28;20319;-78
2021/12/27 05:13:22;;;;;;;31.70;19.20;;;0.70;99.90;;;;;;5036877;28;20048;-79
2021/12/27 05:15:48;;;;;;;33.13;20.30;;;0.70;99.90;;;;;;5043065;28;20313;-79
2021/12/27 05:18:15;;;;;;;32.53;19.03;;;0.70;99.90;;;;;;5035085;28;20045;-79
2021/12/27 05:20:41;;;;;;;34.33;20.60;;;0.70;99.90;;;;;;5056950;28;20153;-79
2021/12/27 05:23:06;;;;;;;36.77;20.47;;;0.70;99.90;;;;;;5065243;28;20861;-79
2021/12/27 05:25:32;;;;;;;33.30;20.77;;;0.70;99.90;;;;;;5052979;28;20040;-78
2021/12/27 05:27:59;;;;;;;33.23;21.13;;;0.70;99.90;;;;;;5018766;28;20172;-78
2021/12/27 05:30:25;;;;;;;32.10;18.97;;;0.70;99.90;;;;;;5018971;28;20077;-81
2021/12/27 05:32:51;;;;;;;38.40;20.83;;;0.70;99.90;;;;;;5034088;28;20298;-79
2021/12/27 05:35:17;;;;;;;34.77;19.83;;;0.70;99.90;;;;;;5034833;28;20063;-79
2021/12/27 05:37:44;;;;;;;35.53;20.57;;;0.70;99.90;;;;;;5063194;28;20053;-80
2021/12/27 05:40:13;;;;;;;34.63;20.33;;;0.70;99.90;;;;;;5051946;28;20040;-80
2021/12/27 05:42:39;;;;;;;34.30;20.47;;;0.70;99.90;;;;;;5035540;28;20381;-79
2021/12/27 05:45:07;;;;;;;35.07;21.20;;;0.70;99.90;;;;;;5026939;28;20883;-79
2021/12/27 05:47:33;;;;;;;37.10;21.73;;;0.70;99.90;;;;;;5036001;28;20086;-79
2021/12/27 05:49:59;;;;;;;36.33;19.17;;;0.70;99.90;;;;;;5038961;28;20298;-79
2021/12/27 05:52:24;;;;;;;36.50;22.13;;;0.70;99.90;;;;;;5026312;28;20298;-79
2021/12/27 05:54:50;;;;;;;37.57;22.10;;;0.80;99.90;;;;;;5072853;28;20040;-79
2021/12/27 05:57:16;;;;;;;39.70;22.77;;;0.70;99.90;;;;;;5056772;28;20079;-80
2021/12/27 05:59:42;;;;;;;37.23;20.97;;;0.80;99.90;;;;;;5054723;28;20048;-79
2021/12/27 06:02:09;;;;;;;41.10;23.17;;;0.80;99.90;;;;;;5033220;28;20051;-79
2021/12/27 06:04:35;;;;;;;41.03;23.73;;;0.70;99.90;;;;;;5068634;28;20055;-79
2021/12/27 06:07:00;;;;;;;37.83;22.90;;;0.80;99.90;;;;;;5038829;28;20302;-79
2021/12/27 06:09:26;;;;;;;38.00;20.77;;;0.80;99.90;;;;;;5042231;28;20040;-80
2021/12/27 06:11:52;;;;;;;41.37;23.83;;;0.80;99.90;;;;;;5032415;28;20068;-79
2021/12/27 06:14:17;;;;;;;41.50;23.13;;;0.80;99.90;;;;;;5021891;28;20056;-79
2021/12/27 06:16:43;;;;;;;41.93;22.23;;;0.80;99.90;;;;;;5039448;28;20056;-79
2021/12/27 06:19:10;;;;;;;44.00;23.90;;;0.80;99.90;;;;;;5034375;28;20051;-80
2021/12/27 06:21:37;;;;;;;43.27;23.80;;;0.80;99.90;;;;;;5039085;28;20119;-80
2021/12/27 06:24:04;;;;;;;49.73;25.03;;;0.80;99.90;;;;;;5039983;28;20306;-80
2021/12/27 06:26:29;;;;;;;43.50;23.50;;;0.80;99.90;;;;;;5034209;28;20354;-77
2021/12/27 06:28:55;;;;;;;43.90;24.13;;;0.80;99.90;;;;;;5059507;28;20305;-77
2021/12/27 06:31:22;;;;;;;48.30;25.50;;;0.80;99.90;;;;;;5019743;28;20460;-77
2021/12/27 06:33:48;;;;;;;43.73;23.57;;;0.80;99.90;;;;;;5028012;28;20072;-77
2021/12/27 06:36:15;;;;;;;50.37;24.47;;;0.90;99.90;;;;;;5037425;28;20329;-77
2021/12/27 06:38:41;;;;;;;52.60;25.57;;;0.90;99.90;;;;;;5037085;28;20044;-76
2021/12/27 06:41:07;;;;;;;45.83;24.37;;;0.90;99.90;;;;;;5061493;28;20298;-77
2021/12/27 06:43:33;;;;;;;47.77;25.23;;;0.90;99.90;;;;;;5041978;28;20076;-76
2021/12/27 06:45:58;;;;;;;49.77;26.47;;;0.80;99.90;;;;;;5039308;28;20426;-77
2021/12/27 06:48:24;;;;;;;50.83;24.50;;;0.80;99.90;;;;;;5021102;28;20051;-77
2021/12/27 06:50:50;;;;;;;50.47;25.93;;;0.80;99.90;;;;;;5034784;28;20051;-77
2021/12/27 06:53:17;;;;;;;48.80;26.43;;;0.80;99.90;;;;;;5037197;28;20045;-77
2021/12/27 06:55:43;;;;;;;57.93;27.17;;;0.90;99.90;;;;;;5050739;28;20056;-77
2021/12/27 06:58:09;;;;;;;45.30;24.37;;;0.90;99.90;;;;;;5026080;28;20826;-77
2021/12/27 07:00:35;;;;;;;45.97;23.27;;;1.00;99.90;;;;;;5040367;28;20303;-77
2021/12/27 07:03:00;;;;;;;50.33;27.57;;;0.90;99.90;;;;;;5054274;28;20115;-77
2021/12/27 07:05:26;;;;;;;47.00;24.93;;;0.90;99.90;;;;;;5032476;28;20056;-77
2021/12/27 07:07:52;;;;;;;56.00;26.50;;;0.90;99.90;;;;;;5034992;28;20802;-77
2021/12/27 07:10:19;;;;;;;51.97;27.17;;;0.90;99.90;;;;;;5035119;28;20177;-77
2021/12/27 07:12:45;;;;;;;57.70;27.97;;;0.90;99.90;;;;;;5052678;28;20045;-78
2021/12/27 07:15:11;;;;;;;57.77;27.83;;;0.90;99.90;;;;;;5051078;28;20299;-76
2021/12/27 07:17:37;;;;;;;54.23;27.40;;;0.90;99.90;;;;;;5039025;28;20432;-77
2021/12/27 07:20:03;;;;;;;57.63;29.13;;;0.90;99.90;;;;;;5051308;28;20044;-77
2021/12/27 07:22:29;;;;;;;55.37;28.30;;;1.00;99.90;;;;;;5049850;28;20866;-77
2021/12/27 07:24:55;;;;;;;49.73;26.27;;;1.00;99.90;;;;;;5051311;28;20294;-77
2021/12/27 07:27:22;;;;;;;60.70;28.20;;;1.00;99.90;;;;;;5035048;28;20513;-78
2021/12/27 07:29:48;;;;;;;54.67;26.37;;;1.00;99.90;;;;;;5037062;28;20052;-77
2021/12/27 07:32:14;;;;;;;55.30;26.97;;;1.00;99.90;;;;;;5048327;28;20294;-77
2021/12/27 07:34:40;;;;;;;56.80;26.60;;;1.00;99.90;;;;;;5045905;28;20349;-77
2021/12/27 07:37:06;;;;;;;50.60;23.33;;;1.00;99.90;;;;;;5038118;28;20052;-78
2021/12/27 07:39:32;;;;;;;46.57;25.23;;;1.00;99.90;;;;;;5027594;28;20386;-78
2021/12/27 07:41:58;;;;;;;52.83;24.83;;;1.00;99.90;;;;;;5017979;28;20059;-77
2021/12/27 07:44:25;;;;;;;48.93;26.97;;;1.10;99.90;;;;;;5051985;28;20340;-77
2021/12/27 07:46:51;;;;;;;51.90;26.13;;;1.00;99.90;;;;;;5020256;28;20040;-77
2021/12/27 07:49:17;;;;;;;49.50;24.47;;;1.10;99.90;;;;;;5034114;28;20302;-78
2021/12/27 07:51:44;;;;;;;53.80;25.03;;;1.10;99.90;;;;;;5035598;28;20299;-78
2021/12/27 07:54:10;;;;;;;56.73;26.60;;;1.10;99.90;;;;;;5050786;28;20305;-77
2021/12/27 07:56:37;;;;;;;61.10;27.03;;;1.10;99.90;;;;;;5017040;28;20307;-77
2021/12/27 07:59:04;;;;;;;54.57;26.37;;;1.10;99.90;;;;;;5034629;28;20302;-77
2021/12/27 08:01:32;;;;;;;55.07;26.93;;;1.10;99.90;;;;;;5050427;28;20295;-77
2021/12/27 08:03:57;;;;;;;58.40;27.37;;;1.10;99.90;;;;;;5034795;28;20381;-77
2021/12/27 08:06:23;;;;;;;58.73;27.57;;;1.20;99.90;;;;;;5030027;28;20389;-77
2021/12/27 08:08:49;;;;;;;63.53;27.23;;;1.20;99.90;;;;;;5016195;28;20098;-77
2021/12/27 08:11:15;;;;;;;62.17;26.40;;;1.20;99.90;;;;;;5018327;28;21206;-77
2021/12/27 08:13:42;;;;;;;63.47;28.43;;;1.20;99.90;;;;;;5048807;28;20044;-77
2021/12/27 08:16:08;;;;;;;65.80;28.47;;;1.20;99.90;;;;;;5029618;28;20059;-77
2021/12/27 08:18:35;;;;;;;66.40;28.33;;;1.20;99.90;;;;;;5051751;28;20368;-77
2021/12/27 08:21:01;;;;;;;70.07;29.47;;;1.30;99.90;;;;;;5047093;28;20517;-77
2021/12/27 08:23:27;;;;;;;77.50;29.43;;;1.30;99.90;;;;;;5047040;28;20311;-77
2021/12/27 08:25:52;;;;;;;74.67;29.67;;;1.30;99.90;;;;;;5028075;28;20094;-77
2021/12/27 08:28:18;;;;;;;67.90;29.17;;;1.30;99.90;;;;;;5047696;28;20303;-77
2021/12/27 08:30:44;;;;;;;69.33;28.93;;;1.30;99.90;;;;;;5015521;28;20550;-77
2021/12/27 08:33:10;;;;;;;71.30;29.83;;;1.30;99.90;;;;;;5029514;28;20032;-77
2021/12/27 08:35:37;;;;;;;72.33;27.77;;;1.30;99.90;;;;;;5028104;28;20058;-77
2021/12/27 08:38:04;;;;;;;71.33;29.10;;;1.30;99.90;;;;;;5029466;28;20428;-77
2021/12/27 08:40:30;;;;;;;76.80;30.70;;;1.40;99.90;;;;;;5044209;28;21038;-76
2021/12/27 08:42:56;;;;;;;66.67;28.37;;;1.40;99.90;;;;;;5017009;28;20310;-77
2021/12/27 08:45:22;;;;;;;78.70;28.60;;;1.40;99.90;;;;;;5045759;28;20041;-78
2021/12/27 08:47:48;;;;;;;73.10;28.80;;;1.40;99.90;;;;;;5047044;28;20111;-77
2021/12/27 08:50:17;;;;;;;78.17;30.50;;;1.40;99.90;;;;;;5029985;28;21701;-78
2021/12/27 08:52:45;;;;;;;76.50;30.03;;;1.40;99.90;;;;;;5017035;28;20306;-77
2021/12/27 08:55:12;;;;;;;67.37;28.60;;;1.40;99.90;;;;;;5028421;28;20414;-77
2021/12/27 08:57:39;;;;;;;79.10;30.33;;;1.50;99.90;;;;;;5048707;28;20298;-77
2021/12/27 09:00:08;;;;;;;75.20;30.33;;;1.50;99.90;;;;;;5016667;28;20711;-77
2021/12/27 09:02:35;;;;;;;87.50;30.93;;;1.50;99.90;;;;;;5046470;28;20299;-77
2021/12/27 09:05:01;;;;;;;85.80;31.70;;;1.50;99.90;;;;;;5048955;28;20301;-77
2021/12/27 09:07:26;;;;;;;79.23;30.27;;;1.50;99.90;;;;;;5042206;28;20401;-76
2021/12/27 09:09:54;;;;;;;91.43;32.03;;;1.60;99.90;;;;;;5046984;28;20389;-76
2021/12/27 09:12:19;;;;;;;76.27;30.43;;;1.60;99.90;;;;;;5047781;28;20096;-77
2021/12/27 09:14:45;;;;;;;90.10;32.70;;;1.60;99.90;;;;;;5032766;28;20334;-77
2021/12/27 09:17:11;;;;;;;96.80;32.70;;;1.70;99.90;;;;;;5025142;28;20044;-77
2021/12/27 09:19:37;;;;;;;88.03;31.97;;;1.70;99.90;;;;;;5027328;28;20044;-77
2021/12/27 09:22:03;;;;;;;97.40;34.13;;;1.80;99.90;;;;;;5030750;28;20127;-77
2021/12/27 09:24:31;;;;;;;94.70;32.10;;;1.80;99.90;;;;;;5033206;28;20040;-77
2021/12/27 09:26:58;;;;;;;91.43;32.10;;;1.90;99.90;;;;;;5034827;28;20695;-77
2021/12/27 09:29:24;;;;;;;97.30;33.77;;;1.80;99.90;;;;;;5053358;28;20310;-77
2021/12/27 09:31:50;;;;;;;97.40;32.07;;;1.80;99.90;;;;;;5034964;28;20690;-77
2021/12/27 09:34:16;;;;;;;99.83;33.07;;;1.90;99.90;;;;;;5048770;28;20044;-77
2021/12/27 09:36:42;;;;;;;92.93;31.53;;;1.90;99.90;;;;;;5013537;28;20052;-77
2021/12/27 09:39:08;;;;;;;103.67;33.30;;;1.90;99.90;;;;;;5048311;28;20398;-77
2021/12/27 09:41:33;;;;;;;98.37;33.83;;;1.90;99.90;;;;;;5048042;28;20067;-77
2021/12/27 09:44:01;;;;;;;92.07;32.37;;;1.90;99.90;;;;;;5048031;28;20041;-77
2021/12/27 09:46:27;;;;;;;101.23;33.20;;;1.90;99.90;;;;;;5034851;28;20076;-76
2021/12/27 09:48:56;;;;;;;113.37;35.27;;;2.00;99.90;;;;;;5033626;28;20786;-77
2021/12/27 09:51:23;;;;;;;114.33;35.13;;;2.10;99.90;;;;;;5049138;28;20044;-76
2021/12/27 09:53:50;;;;;;;104.43;34.03;;;2.00;99.90;;;;;;5032413;28;20305;-78
2021/12/27 09:56:15;;;;;;;140.67;35.67;;;2.10;99.90;;;;;;5030423;28;20397;-77
2021/12/27 09:58:41;;;;;;;111.70;34.80;;;2.10;99.90;;;;;;5049530;28;20393;-77
2021/12/27 10:01:08;;;;;;;106.53;34.73;;;2.10;99.90;;;;;;5017409;28;20083;-77
2021/12/27 10:03:47;;;;;;;101.80;34.13;;;2.10;99.90;;;;;;5047896;28;20121;-77
2021/12/27 10:06:14;;;;;;;121.00;34.17;;;2.10;99.90;;;;;;5044787;28;20315;-77
2021/12/27 10:08:43;;;;;;;118.43;32.27;;;2.20;99.90;;;;;;5026736;28;20299;-77
2021/12/27 10:11:15;;;;;;;114.57;34.23;;;2.20;99.90;;;;;;5047083;28;20319;-77
2021/12/27 10:13:56;;;;;;;114.77;34.80;;;2.20;99.90;;;;;;5046937;28;20304;-77
2021/12/27 10:16:24;;;;;;;110.17;34.83;;;2.20;99.90;;;;;;5031379;28;20319;-77
2021/12/27 10:18:53;;;;;;;120.63;36.43;;;2.20;99.90;;;;;;5045880;28;20311;-76
2021/12/27 10:21:19;;;;;;;129.03;35.50;;;2.20;99.90;;;;;;5031607;28;20299;-76
2021/12/27 10:23:45;;;;;;;133.63;36.37;;;2.20;99.90;;;;;;5048298;28;20811;-77
2021/12/27 10:26:16;;;;;;;148.30;37.53;;;2.30;99.90;;;;;;5017880;28;20052;-77
2021/12/27 10:28:42;;;;;;;139.97;36.80;;;2.30;99.90;;;;;;5043077;28;20045;-77
2021/12/27 10:31:08;;;;;;;151.23;38.57;;;2.30;99.90;;;;;;5035476;28;20826;-77
2021/12/27 10:33:36;;;;;;;152.63;38.57;;;2.30;99.90;;;;;;5032593;28;20055;-77
2021/12/27 10:36:02;;;;;;;123.10;36.37;;;2.30;99.90;;;;;;5041358;28;20060;-77
2021/12/27 10:38:31;;;;;;;144.00;39.60;;;2.30;99.90;;;;;;5054803;28;20306;-77
2021/12/27 10:40:59;;;;;;;156.93;39.23;;;2.40;99.90;;;;;;5045323;28;20298;-77
2021/12/27 10:43:38;;;;;;;164.37;37.97;;;2.40;99.90;;;;;;5012334;28;20819;-77
2021/12/27 10:46:04;;;;;;;172.43;38.77;;;2.50;99.90;;;;;;5041576;28;20306;-78
2021/12/27 10:48:36;;;;;;;190.53;41.37;;;2.50;99.90;;;;;;5028656;28;20321;-76
2021/12/27 10:51:03;;;;;;;201.57;42.33;;;2.50;99.90;;;;;;5029920;28;20311;-77
2021/12/27 10:53:42;;;;;;;147.70;38.83;;;2.60;99.90;;;;;;5053131;28;20294;-77
2021/12/27 10:56:08;;;;;;;147.40;38.53;;;2.60;99.90;;;;;;5030255;28;20323;-77
2021/12/27 10:58:38;;;;;;;143.90;39.47;;;2.60;99.90;;;;;;5037083;28;20865;-77
2021/12/27 11:01:07;;;;;;;164.23;39.03;;;2.70;99.90;;;;;;5049375;28;20119;-78
2021/12/27 11:03:36;;;;;;;134.97;36.40;;;2.70;99.90;;;;;;5026546;28;20394;-77
2021/12/27 11:06:04;;;;;;;175.87;41.97;;;2.70;99.90;;;;;;5046342;28;20310;-78
2021/12/27 11:08:31;;;;;;;156.57;39.17;;;2.70;99.90;;;;;;5029570;28;20397;-77
2021/12/27 11:10:57;;;;;;;200.97;39.93;;;2.80;99.90;;;;;;5046530;28;20306;-77
2021/12/27 11:13:24;;;;;;;127.90;35.13;;;2.90;99.90;;;;;;5016823;28;20306;-77
2021/12/27 11:15:51;;;;;;;176.20;39.37;;;2.90;99.90;;;;;;5028713;28;20808;-77
2021/12/27 11:18:17;;;;;;;156.27;37.63;;;2.90;99.90;;;;;;5029173;28;20325;-77
2021/12/27 11:20:47;;;;;;;186.13;41.80;;;2.90;99.90;;;;;;5013983;28;20322;-78
2021/12/27 11:23:14;;;;;;;186.67;40.40;;;2.90;99.90;;;;;;5035171;28;20059;-77
2021/12/27 11:25:41;;;;;;;155.20;39.47;;;2.90;99.90;;;;;;5029969;28;20295;-77
2021/12/27 11:28:25;;;;;;;209.43;41.43;;;2.80;99.90;;;;;;5048076;28;20334;-77
2021/12/27 11:30:51;;;;;;;169.93;40.20;;;2.90;99.90;;;;;;5026001;28;20897;-77
2021/12/27 11:33:20;;;;;;;197.47;43.03;;;2.80;99.90;;;;;;5049714;28;20389;-77
2021/12/27 11:36:14;;;;;;;157.00;39.63;;;2.80;99.90;;;;;;5049105;28;20290;-77
2021/12/27 11:38:42;;;;;;;122.80;35.45;;;2.80;99.90;;;;;;4999343;28;20307;-77
2021/12/27 11:41:31;;;;;;;191.63;40.83;;;2.90;99.90;;;;;;5027071;28;20131;-77
2021/12/27 11:43:58;;;;;;;175.13;41.50;;;2.90;99.90;;;;;;5034535;28;20317;-77
2021/12/27 11:46:26;;;;;;;195.13;40.60;;;2.90;99.90;;;;;;5034173;28;20819;-78
2021/12/27 11:48:54;;;;;;;183.33;40.73;;;2.90;99.90;;;;;;5046996;28;20302;-77
2021/12/27 11:51:33;;;;;;;216.67;43.30;;;2.90;99.90;;;;;;5018148;28;20302;-77
2021/12/27 11:54:02;;;;;;;145.03;38.63;;;2.90;99.90;;;;;;5006522;28;20694;-76
2021/12/27 11:56:44;;;;;;;185.77;42.47;;;3.00;99.90;;;;;;5047523;28;20774;-78
2021/12/27 11:59:37;;;;;;;168.33;40.30;;;3.00;99.90;;;;;;5015313;28;20299;-77
2021/12/27 12:02:26;;;;;;;156.70;39.50;;;3.00;99.90;;;;;;5035515;28;20331;-78
2021/12/27 12:04:54;;;;;;;157.77;35.23;;;3.00;99.90;;;;;;5025106;28;20385;-76
2021/12/27 12:07:50;;;;;;;171.60;40.63;;;3.00;99.90;;;;;;5048381;28;20381;-76
2021/12/27 12:10:18;;;;;;;157.33;39.00;;;3.10;99.90;;;;;;5041073;28;20317;-76
2021/12/27 12:13:19;;;;;;;178.83;42.70;;;3.10;99.90;;;;;;5030660;28;20978;-76
2021/12/27 12:16:04;;;;;;;166.73;38.60;;;3.20;99.90;;;;;;5048715;28;20312;-76
2021/12/27 12:18:31;;;;;;;145.10;37.00;;;3.20;99.90;;;;;;5027443;28;20664;-77
2021/12/27 12:20:58;;;;;;;183.80;39.53;;;3.20;99.90;;;;;;5029104;28;20295;-76
2021/12/27 12:23:25;;;;;;;192.80;41.27;;;3.30;99.90;;;;;;5016784;28;20707;-77
2021/12/27 12:25:58;;;;;;;151.87;40.67;;;3.30;99.90;;;;;;5033847;28;20309;-76
2021/12/27 12:28:24;;;;;;;165.53;39.97;;;3.40;99.90;;;;;;5031852;28;20306;-76
2021/12/27 12:30:51;;;;;;;151.43;41.60;;;3.40;99.90;;;;;;5030913;28;20071;-77
2021/12/27 12:33:19;;;;;;;156.90;37.40;;;3.40;99.90;;;;;;5046667;28;20386;-76
2021/12/27 12:35:47;;;;;;;170.67;41.30;;;3.40;99.90;;;;;;5029670;28;20298;-76
2021/12/27 12:38:17;;;;;;;155.93;40.60;;;3.40;99.90;;;;;;5046595;28;20514;-76